sensor_id;sensor_type;location;lat;lon;timestamp;P1;durP1;ratioP1;P2;durP2;ratioP2
27999;SDS011;15328;50.860;10.562;2022-07-18T00:04:21;1.10;;;0.60;;
27999;SDS011;15328;50.860;10.562;2022-07-18T00:09:22;1.67;;;0.60;;
27999;SDS011;15328;50.860;10.562;2022-07-18T00:14:23;2.40;;;0.82;;
27999;SDS011;15328;50.860;10.562;2022-07-18T00:19:24;1.48;;;0.60;;
27999;SDS011;15328;50.860;10.562;2022-07-18T00:24:25;1.40;;;0.70;;
27999;SDS011;15328;50.860;10.562;2022-07-18T00:29:26;1.98;;;0.70;;
27999;SDS011;15328;50.860;10.562;2022-07-18T00:34:26;1.52;;;0.70;;
27999;SDS011;15328;50.860;10.562;2022-07-18T00:39:27;1.50;;;0.63;;
27999;SDS011;15328;50.860;10.562;2022-07-18T00:44:28;1.97;;;0.70;;
27999;SDS011;15328;50.860;10.562;2022-07-18T00:49:29;1.23;;;0.70;;
27999;SDS011;15328;50.860;10.562;2022-07-18T00:54:30;1.10;;;0.60;;
27999;SDS011;15328;50.860;10.562;2022-07-18T00:59:32;1.20;;;0.60;;
27999;SDS011;15328;50.860;10.562;2022-07-18T01:04:52;1.85;;;0.70;;
27999;SDS011;15328;50.860;10.562;2022-07-18T01:09:53;1.60;;;0.60;;
27999;SDS011;15328;50.860;10.562;2022-07-18T01:14:53;0.90;;;0.50;;
27999;SDS011;15328;50.860;10.562;2022-07-18T01:19:55;1.40;;;0.70;;
27999;SDS011;15328;50.860;10.562;2022-07-18T01:24:56;1.63;;;0.80;;
27999;SDS011;15328;50.860;10.562;2022-07-18T01:29:56;1.98;;;0.55;;
27999;SDS011;15328;50.860;10.562;2022-07-18T01:34:57;1.45;;;0.70;;
27999;SDS011;15328;50.860;10.562;2022-07-18T01:39:57;1.60;;;0.90;;
27999;SDS011;15328;50.860;10.562;2022-07-18T01:44:57;1.67;;;0.80;;
27999;SDS011;15328;50.860;10.562;2022-07-18T01:49:58;2.10;;;0.70;;
27999;SDS011;15328;50.860;10.562;2022-07-18T01:54:58;2.73;;;0.60;;
27999;SDS011;15328;50.860;10.562;2022-07-18T01:59:58;2.25;;;0.70;;
27999;SDS011;15328;50.860;10.562;2022-07-18T02:04:59;1.73;;;0.80;;
27999;SDS011;15328;50.860;10.562;2022-07-18T02:09:59;1.73;;;0.63;;
27999;SDS011;15328;50.860;10.562;2022-07-18T02:15:01;1.15;;;0.60;;
27999;SDS011;15328;50.860;10.562;2022-07-18T02:20:03;1.58;;;0.80;;
27999;SDS011;15328;50.860;10.562;2022-07-18T02:25:07;2.58;;;0.90;;
27999;SDS011;15328;50.860;10.562;2022-07-18T02:30:09;1.70;;;0.65;;
27999;SDS011;15328;50.860;10.562;2022-07-18T02:35:10;1.17;;;0.80;;
27999;SDS011;15328;50.860;10.562;2022-07-18T02:40:10;1.77;;;0.63;;
27999;SDS011;15328;50.860;10.562;2022-07-18T02:45:11;1.30;;;0.80;;
27999;SDS011;15328;50.860;10.562;2022-07-18T02:50:12;2.30;;;0.88;;
27999;SDS011;15328;50.860;10.562;2022-07-18T02:55:13;1.08;;;0.70;;
27999;SDS011;15328;50.860;10.562;2022-07-18T03:00:14;2.22;;;0.70;;
27999;SDS011;15328;50.860;10.562;2022-07-18T03:05:15;1.25;;;0.80;;
27999;SDS011;15328;50.860;10.562;2022-07-18T03:10:16;1.63;;;0.70;;
27999;SDS011;15328;50.860;10.562;2022-07-18T03:15:16;1.90;;;0.75;;
27999;SDS011;15328;50.860;10.562;2022-07-18T03:20:16;2.95;;;0.90;;
27999;SDS011;15328;50.860;10.562;2022-07-18T03:25:17;1.90;;;0.80;;
27999;SDS011;15328;50.860;10.562;2022-07-18T03:30:17;2.65;;;0.80;;
27999;SDS011;15328;50.860;10.562;2022-07-18T03:35:19;1.20;;;0.60;;
27999;SDS011;15328;50.860;10.562;2022-07-18T03:40:19;0.80;;;0.60;;
27999;SDS011;15328;50.860;10.562;2022-07-18T03:45:19;0.90;;;0.63;;
27999;SDS011;15328;50.860;10.562;2022-07-18T03:50:20;1.30;;;0.70;;
27999;SDS011;15328;50.860;10.562;2022-07-18T03:55:20;1.27;;;0.60;;
27999;SDS011;15328;50.860;10.562;2022-07-18T04:00:21;1.33;;;0.70;;
27999;SDS011;15328;50.860;10.562;2022-07-18T04:05:21;1.52;;;1.02;;
27999;SDS011;15328;50.860;10.562;2022-07-18T04:10:22;1.70;;;0.70;;
27999;SDS011;15328;50.860;10.562;2022-07-18T04:15:23;1.63;;;0.77;;
27999;SDS011;15328;50.860;10.562;2022-07-18T04:20:25;1.38;;;0.65;;
27999;SDS011;15328;50.860;10.562;2022-07-18T04:25:27;1.73;;;0.70;;
27999;SDS011;15328;50.860;10.562;2022-07-18T04:30:29;1.60;;;0.70;;
27999;SDS011;15328;50.860;10.562;2022-07-18T04:35:30;1.13;;;0.60;;
27999;SDS011;15328;50.860;10.562;2022-07-18T04:40:31;1.02;;;0.60;;
27999;SDS011;15328;50.860;10.562;2022-07-18T04:45:32;1.40;;;0.82;;
27999;SDS011;15328;50.860;10.562;2022-07-18T04:50:33;1.02;;;0.73;;
27999;SDS011;15328;50.860;10.562;2022-07-18T04:55:33;1.38;;;0.68;;
27999;SDS011;15328;50.860;10.562;2022-07-18T05:00:34;2.10;;;0.70;;
27999;SDS011;15328;50.860;10.562;2022-07-18T05:05:34;1.30;;;0.68;;
27999;SDS011;15328;50.860;10.562;2022-07-18T05:10:34;1.47;;;0.77;;
27999;SDS011;15328;50.860;10.562;2022-07-18T05:15:35;3.37;;;0.80;;
27999;SDS011;15328;50.860;10.562;2022-07-18T05:20:35;1.23;;;0.70;;
27999;SDS011;15328;50.860;10.562;2022-07-18T05:25:36;1.13;;;0.50;;
27999;SDS011;15328;50.860;10.562;2022-07-18T05:30:36;1.23;;;0.70;;
27999;SDS011;15328;50.860;10.562;2022-07-18T05:35:37;0.70;;;0.43;;
27999;SDS011;15328;50.860;10.562;2022-07-18T05:40:37;0.80;;;0.50;;
27999;SDS011;15328;50.860;10.562;2022-07-18T05:45:37;0.87;;;0.60;;
27999;SDS011;15328;50.860;10.562;2022-07-18T05:50:38;1.48;;;0.70;;
27999;SDS011;15328;50.860;10.562;2022-07-18T05:55:38;1.50;;;0.80;;
27999;SDS011;15328;50.860;10.562;2022-07-18T06:00:39;1.43;;;0.80;;
27999;SDS011;15328;50.860;10.562;2022-07-18T06:05:39;2.33;;;0.70;;
27999;SDS011;15328;50.860;10.562;2022-07-18T06:10:40;0.98;;;0.77;;
27999;SDS011;15328;50.860;10.562;2022-07-18T06:15:40;1.43;;;0.73;;
27999;SDS011;15328;50.860;10.562;2022-07-18T06:20:40;1.63;;;0.80;;
27999;SDS011;15328;50.860;10.562;2022-07-18T06:25:41;1.07;;;0.60;;
27999;SDS011;15328;50.860;10.562;2022-07-18T06:30:41;1.48;;;0.60;;
27999;SDS011;15328;50.860;10.562;2022-07-18T06:35:42;2.10;;;0.70;;
27999;SDS011;15328;50.860;10.562;2022-07-18T06:40:42;0.97;;;0.60;;
27999;SDS011;15328;50.860;10.562;2022-07-18T06:45:43;1.42;;;0.65;;
27999;SDS011;15328;50.860;10.562;2022-07-18T06:50:44;1.20;;;0.70;;
27999;SDS011;15328;50.860;10.562;2022-07-18T06:55:44;1.88;;;1.02;;
27999;SDS011;15328;50.860;10.562;2022-07-18T07:00:45;1.33;;;0.65;;
27999;SDS011;15328;50.860;10.562;2022-07-18T07:05:45;2.20;;;0.60;;
27999;SDS011;15328;50.860;10.562;2022-07-18T07:10:46;1.38;;;0.77;;
27999;SDS011;15328;50.860;10.562;2022-07-18T07:15:46;1.38;;;0.70;;
27999;SDS011;15328;50.860;10.562;2022-07-18T07:20:47;1.20;;;0.77;;
27999;SDS011;15328;50.860;10.562;2022-07-18T07:25:47;1.98;;;0.70;;
27999;SDS011;15328;50.860;10.562;2022-07-18T07:30:47;1.27;;;0.70;;
27999;SDS011;15328;50.860;10.562;2022-07-18T07:35:48;1.25;;;0.60;;
27999;SDS011;15328;50.860;10.562;2022-07-18T07:40:48;1.27;;;0.63;;
27999;SDS011;15328;50.860;10.562;2022-07-18T07:45:49;1.20;;;0.70;;
27999;SDS011;15328;50.860;10.562;2022-07-18T07:50:52;1.08;;;0.65;;
27999;SDS011;15328;50.860;10.562;2022-07-18T07:55:52;2.35;;;1.00;;
27999;SDS011;15328;50.860;10.562;2022-07-18T08:00:52;1.87;;;0.63;;
27999;SDS011;15328;50.860;10.562;2022-07-18T08:05:53;2.65;;;0.80;;
27999;SDS011;15328;50.860;10.562;2022-07-18T08:10:54;2.78;;;0.93;;
27999;SDS011;15328;50.860;10.562;2022-07-18T08:15:54;2.20;;;0.67;;
27999;SDS011;15328;50.860;10.562;2022-07-18T08:20:54;1.70;;;0.73;;
27999;SDS011;15328;50.860;10.562;2022-07-18T08:25:55;1.90;;;0.70;;
27999;SDS011;15328;50.860;10.562;2022-07-18T08:30:55;1.53;;;0.70;;
27999;SDS011;15328;50.860;10.562;2022-07-18T08:35:55;1.50;;;0.60;;
27999;SDS011;15328;50.860;10.562;2022-07-18T08:40:56;2.20;;;0.80;;
27999;SDS011;15328;50.860;10.562;2022-07-18T08:46:02;1.27;;;0.60;;
27999;SDS011;15328;50.860;10.562;2022-07-18T08:51:03;1.20;;;0.60;;
27999;SDS011;15328;50.860;10.562;2022-07-18T08:56:05;3.00;;;0.98;;
27999;SDS011;15328;50.860;10.562;2022-07-18T09:01:05;2.08;;;0.80;;
27999;SDS011;15328;50.860;10.562;2022-07-18T09:06:07;2.53;;;0.60;;
27999;SDS011;15328;50.860;10.562;2022-07-18T09:11:12;1.30;;;0.68;;
27999;SDS011;15328;50.860;10.562;2022-07-18T09:16:13;2.55;;;0.70;;
27999;SDS011;15328;50.860;10.562;2022-07-18T09:31:35;1.13;;;0.60;;
27999;SDS011;15328;50.860;10.562;2022-07-18T09:36:36;0.73;;;0.60;;
27999;SDS011;15328;50.860;10.562;2022-07-18T09:41:54;3.65;;;0.75;;
27999;SDS011;15328;50.860;10.562;2022-07-18T09:47:12;2.67;;;0.80;;
27999;SDS011;15328;50.860;10.562;2022-07-18T09:52:12;1.83;;;0.70;;
27999;SDS011;15328;50.860;10.562;2022-07-18T09:57:26;0.87;;;0.53;;
27999;SDS011;15328;50.860;10.562;2022-07-18T10:02:27;0.73;;;0.50;;
27999;SDS011;15328;50.860;10.562;2022-07-18T10:07:27;0.93;;;0.60;;
27999;SDS011;15328;50.860;10.562;2022-07-18T10:12:28;1.08;;;0.50;;
27999;SDS011;15328;50.860;10.562;2022-07-18T10:17:30;1.20;;;0.57;;
27999;SDS011;15328;50.860;10.562;2022-07-18T10:22:35;0.75;;;0.60;;
27999;SDS011;15328;50.860;10.562;2022-07-18T10:27:55;1.10;;;0.40;;
27999;SDS011;15328;50.860;10.562;2022-07-18T10:33:05;1.00;;;0.60;;
27999;SDS011;15328;50.860;10.562;2022-07-18T10:38:38;1.10;;;0.70;;
27999;SDS011;15328;50.860;10.562;2022-07-18T10:43:39;1.13;;;0.70;;
27999;SDS011;15328;50.860;10.562;2022-07-18T10:48:47;1.50;;;0.85;;
27999;SDS011;15328;50.860;10.562;2022-07-18T10:59:18;1.20;;;0.70;;
27999;SDS011;15328;50.860;10.562;2022-07-18T11:04:24;1.83;;;0.80;;
27999;SDS011;15328;50.860;10.562;2022-07-18T11:14:59;1.10;;;0.60;;
27999;SDS011;15328;50.860;10.562;2022-07-18T11:20:36;2.33;;;0.80;;
27999;SDS011;15328;50.860;10.562;2022-07-18T11:25:38;1.70;;;0.70;;
27999;SDS011;15328;50.860;10.562;2022-07-18T11:30:39;1.77;;;0.80;;
27999;SDS011;15328;50.860;10.562;2022-07-18T11:35:40;2.20;;;0.88;;
27999;SDS011;15328;50.860;10.562;2022-07-18T11:40:50;1.00;;;0.67;;
27999;SDS011;15328;50.860;10.562;2022-07-18T11:46:05;1.85;;;0.65;;
27999;SDS011;15328;50.860;10.562;2022-07-18T11:51:10;1.60;;;0.80;;
27999;SDS011;15328;50.860;10.562;2022-07-18T11:56:10;2.65;;;0.77;;
27999;SDS011;15328;50.860;10.562;2022-07-18T12:01:11;1.20;;;0.70;;
27999;SDS011;15328;50.860;10.562;2022-07-18T12:26:43;1.25;;;0.80;;
27999;SDS011;15328;50.860;10.562;2022-07-18T12:31:45;1.35;;;0.80;;
27999;SDS011;15328;50.860;10.562;2022-07-18T12:36:52;1.50;;;0.75;;
27999;SDS011;15328;50.860;10.562;2022-07-18T12:41:55;1.85;;;0.80;;
27999;SDS011;15328;50.860;10.562;2022-07-18T12:46:56;1.73;;;0.98;;
27999;SDS011;15328;50.860;10.562;2022-07-18T12:51:56;1.05;;;0.73;;
27999;SDS011;15328;50.860;10.562;2022-07-18T12:56:57;1.70;;;0.67;;
27999;SDS011;15328;50.860;10.562;2022-07-18T13:01:57;2.80;;;0.90;;
27999;SDS011;15328;50.860;10.562;2022-07-18T13:06:57;1.27;;;0.60;;
27999;SDS011;15328;50.860;10.562;2022-07-18T13:11:58;1.05;;;0.85;;
27999;SDS011;15328;50.860;10.562;2022-07-18T13:16:59;1.58;;;1.20;;
27999;SDS011;15328;50.860;10.562;2022-07-18T13:22:00;2.85;;;1.00;;
27999;SDS011;15328;50.860;10.562;2022-07-18T13:27:00;2.50;;;1.30;;
27999;SDS011;15328;50.860;10.562;2022-07-18T13:32:01;1.67;;;1.10;;
27999;SDS011;15328;50.860;10.562;2022-07-18T13:37:03;1.77;;;1.05;;
27999;SDS011;15328;50.860;10.562;2022-07-18T13:42:03;1.53;;;0.93;;
27999;SDS011;15328;50.860;10.562;2022-07-18T13:47:05;2.08;;;1.02;;
27999;SDS011;15328;50.860;10.562;2022-07-18T13:52:05;1.20;;;0.90;;
27999;SDS011;15328;50.860;10.562;2022-07-18T13:57:06;1.33;;;0.98;;
27999;SDS011;15328;50.860;10.562;2022-07-18T14:02:07;1.30;;;1.00;;
27999;SDS011;15328;50.860;10.562;2022-07-18T14:07:07;1.52;;;1.00;;
27999;SDS011;15328;50.860;10.562;2022-07-18T14:12:08;1.90;;;1.00;;
27999;SDS011;15328;50.860;10.562;2022-07-18T14:17:08;1.33;;;0.80;;
27999;SDS011;15328;50.860;10.562;2022-07-18T14:22:09;1.50;;;0.97;;
27999;SDS011;15328;50.860;10.562;2022-07-18T14:27:10;1.58;;;1.17;;
27999;SDS011;15328;50.860;10.562;2022-07-18T14:32:10;2.33;;;0.93;;
27999;SDS011;15328;50.860;10.562;2022-07-18T14:37:10;1.33;;;0.80;;
27999;SDS011;15328;50.860;10.562;2022-07-18T14:42:11;1.50;;;1.10;;
27999;SDS011;15328;50.860;10.562;2022-07-18T14:47:12;1.85;;;1.00;;
27999;SDS011;15328;50.860;10.562;2022-07-18T14:52:13;1.40;;;1.00;;
27999;SDS011;15328;50.860;10.562;2022-07-18T14:57:13;1.23;;;0.73;;
27999;SDS011;15328;50.860;10.562;2022-07-18T15:02:16;1.02;;;0.70;;
27999;SDS011;15328;50.860;10.562;2022-07-18T15:07:16;0.80;;;0.70;;
27999;SDS011;15328;50.860;10.562;2022-07-18T15:12:17;0.90;;;0.77;;
27999;SDS011;15328;50.860;10.562;2022-07-18T15:17:17;1.63;;;1.00;;
27999;SDS011;15328;50.860;10.562;2022-07-18T15:22:18;2.10;;;0.77;;
27999;SDS011;15328;50.860;10.562;2022-07-18T15:27:19;1.30;;;0.90;;
27999;SDS011;15328;50.860;10.562;2022-07-18T15:32:19;1.30;;;0.90;;
27999;SDS011;15328;50.860;10.562;2022-07-18T15:37:19;1.20;;;0.70;;
27999;SDS011;15328;50.860;10.562;2022-07-18T15:42:20;1.10;;;0.83;;
27999;SDS011;15328;50.860;10.562;2022-07-18T15:47:20;1.13;;;0.93;;
27999;SDS011;15328;50.860;10.562;2022-07-18T15:52:21;1.33;;;0.77;;
27999;SDS011;15328;50.860;10.562;2022-07-18T15:57:21;1.40;;;0.97;;
27999;SDS011;15328;50.860;10.562;2022-07-18T16:02:23;1.23;;;0.80;;
27999;SDS011;15328;50.860;10.562;2022-07-18T16:07:23;1.40;;;0.87;;
27999;SDS011;15328;50.860;10.562;2022-07-18T16:12:24;1.60;;;0.90;;
27999;SDS011;15328;50.860;10.562;2022-07-18T16:17:27;1.45;;;0.88;;
27999;SDS011;15328;50.860;10.562;2022-07-18T16:22:27;1.30;;;0.70;;
27999;SDS011;15328;50.860;10.562;2022-07-18T16:27:28;1.70;;;0.90;;
27999;SDS011;15328;50.860;10.562;2022-07-18T16:32:29;0.88;;;0.70;;
27999;SDS011;15328;50.860;10.562;2022-07-18T16:37:30;0.95;;;0.65;;
27999;SDS011;15328;50.860;10.562;2022-07-18T16:42:30;1.20;;;0.70;;
27999;SDS011;15328;50.860;10.562;2022-07-18T16:47:31;1.00;;;0.80;;
27999;SDS011;15328;50.860;10.562;2022-07-18T16:52:32;0.98;;;0.68;;
27999;SDS011;15328;50.860;10.562;2022-07-18T16:57:35;0.98;;;0.77;;
27999;SDS011;15328;50.860;10.562;2022-07-18T17:02:36;1.80;;;0.90;;
27999;SDS011;15328;50.860;10.562;2022-07-18T17:07:36;2.10;;;1.10;;
27999;SDS011;15328;50.860;10.562;2022-07-18T17:12:37;1.75;;;0.98;;
27999;SDS011;15328;50.860;10.562;2022-07-18T17:17:38;1.35;;;0.77;;
27999;SDS011;15328;50.860;10.562;2022-07-18T17:22:41;1.30;;;0.80;;
27999;SDS011;15328;50.860;10.562;2022-07-18T17:27:43;1.52;;;1.00;;
27999;SDS011;15328;50.860;10.562;2022-07-18T17:32:44;0.98;;;0.77;;
27999;SDS011;15328;50.860;10.562;2022-07-18T17:37:45;1.58;;;0.98;;
27999;SDS011;15328;50.860;10.562;2022-07-18T17:42:46;1.33;;;0.95;;
27999;SDS011;15328;50.860;10.562;2022-07-18T17:47:47;1.85;;;0.98;;
27999;SDS011;15328;50.860;10.562;2022-07-18T17:52:48;1.58;;;0.90;;
27999;SDS011;15328;50.860;10.562;2022-07-18T17:57:49;1.27;;;0.80;;
27999;SDS011;15328;50.860;10.562;2022-07-18T18:02:50;1.20;;;0.77;;
27999;SDS011;15328;50.860;10.562;2022-07-18T18:07:50;1.17;;;0.85;;
27999;SDS011;15328;50.860;10.562;2022-07-18T18:12:51;2.07;;;0.90;;
27999;SDS011;15328;50.860;10.562;2022-07-18T18:17:51;1.40;;;1.08;;
27999;SDS011;15328;50.860;10.562;2022-07-18T18:22:52;1.08;;;0.88;;
27999;SDS011;15328;50.860;10.562;2022-07-18T18:27:52;1.40;;;1.10;;
27999;SDS011;15328;50.860;10.562;2022-07-18T18:32:53;1.53;;;0.90;;
27999;SDS011;15328;50.860;10.562;2022-07-18T18:37:53;1.60;;;1.00;;
27999;SDS011;15328;50.860;10.562;2022-07-18T18:42:54;1.27;;;1.00;;
27999;SDS011;15328;50.860;10.562;2022-07-18T18:47:54;2.17;;;1.00;;
27999;SDS011;15328;50.860;10.562;2022-07-18T18:52:55;1.25;;;0.90;;
27999;SDS011;15328;50.860;10.562;2022-07-18T18:57:55;1.80;;;1.10;;
27999;SDS011;15328;50.860;10.562;2022-07-18T19:02:56;1.92;;;1.00;;
27999;SDS011;15328;50.860;10.562;2022-07-18T19:07:58;1.77;;;1.10;;
27999;SDS011;15328;50.860;10.562;2022-07-18T19:12:58;2.50;;;1.40;;
27999;SDS011;15328;50.860;10.562;2022-07-18T19:17:59;2.35;;;1.20;;
27999;SDS011;15328;50.860;10.562;2022-07-18T19:22:59;2.30;;;1.33;;
27999;SDS011;15328;50.860;10.562;2022-07-18T19:28:00;1.63;;;1.10;;
27999;SDS011;15328;50.860;10.562;2022-07-18T19:33:01;1.25;;;0.90;;
27999;SDS011;15328;50.860;10.562;2022-07-18T19:38:02;3.28;;;1.20;;
27999;SDS011;15328;50.860;10.562;2022-07-18T19:43:03;1.93;;;1.40;;
27999;SDS011;15328;50.860;10.562;2022-07-18T19:48:03;2.10;;;1.17;;
27999;SDS011;15328;50.860;10.562;2022-07-18T19:53:05;1.60;;;1.00;;
27999;SDS011;15328;50.860;10.562;2022-07-18T19:58:06;1.73;;;1.15;;
27999;SDS011;15328;50.860;10.562;2022-07-18T20:03:07;2.70;;;1.30;;
27999;SDS011;15328;50.860;10.562;2022-07-18T20:08:08;1.70;;;1.15;;
27999;SDS011;15328;50.860;10.562;2022-07-18T20:13:12;1.27;;;1.00;;
27999;SDS011;15328;50.860;10.562;2022-07-18T20:18:12;1.83;;;1.42;;
27999;SDS011;15328;50.860;10.562;2022-07-18T20:23:15;2.28;;;1.30;;
27999;SDS011;15328;50.860;10.562;2022-07-18T20:28:16;1.60;;;1.30;;
27999;SDS011;15328;50.860;10.562;2022-07-18T20:33:16;5.97;;;4.07;;
27999;SDS011;15328;50.860;10.562;2022-07-18T20:38:17;3.38;;;2.13;;
27999;SDS011;15328;50.860;10.562;2022-07-18T20:43:18;3.17;;;1.55;;
27999;SDS011;15328;50.860;10.562;2022-07-18T20:48:18;2.63;;;1.40;;
27999;SDS011;15328;50.860;10.562;2022-07-18T20:53:18;2.67;;;1.60;;
27999;SDS011;15328;50.860;10.562;2022-07-18T20:58:19;2.03;;;1.40;;
27999;SDS011;15328;50.860;10.562;2022-07-18T21:03:19;1.40;;;1.20;;
27999;SDS011;15328;50.860;10.562;2022-07-18T21:08:19;1.80;;;1.20;;
27999;SDS011;15328;50.860;10.562;2022-07-18T21:13:20;2.33;;;1.20;;
27999;SDS011;15328;50.860;10.562;2022-07-18T21:18:20;3.33;;;1.17;;
27999;SDS011;15328;50.860;10.562;2022-07-18T21:23:21;2.47;;;1.50;;
27999;SDS011;15328;50.860;10.562;2022-07-18T21:28:24;2.70;;;1.30;;
27999;SDS011;15328;50.860;10.562;2022-07-18T21:33:24;2.80;;;1.25;;
27999;SDS011;15328;50.860;10.562;2022-07-18T21:38:25;2.40;;;1.20;;
27999;SDS011;15328;50.860;10.562;2022-07-18T21:43:25;1.73;;;1.20;;
27999;SDS011;15328;50.860;10.562;2022-07-18T21:48:26;2.73;;;1.20;;
27999;SDS011;15328;50.860;10.562;2022-07-18T21:53:26;3.70;;;1.23;;
27999;SDS011;15328;50.860;10.562;2022-07-18T21:58:26;2.17;;;1.47;;
27999;SDS011;15328;50.860;10.562;2022-07-18T22:03:29;2.58;;;1.20;;
27999;SDS011;15328;50.860;10.562;2022-07-18T22:08:29;2.08;;;1.30;;
27999;SDS011;15328;50.860;10.562;2022-07-18T22:13:29;2.53;;;1.67;;
27999;SDS011;15328;50.860;10.562;2022-07-18T22:18:30;1.60;;;1.20;;
27999;SDS011;15328;50.860;10.562;2022-07-18T22:23:30;1.70;;;1.20;;
27999;SDS011;15328;50.860;10.562;2022-07-18T22:28:30;1.60;;;1.10;;
27999;SDS011;15328;50.860;10.562;2022-07-18T22:33:31;1.50;;;1.00;;
27999;SDS011;15328;50.860;10.562;2022-07-18T22:38:32;1.55;;;1.13;;
27999;SDS011;15328;50.860;10.562;2022-07-18T22:43:33;1.17;;;1.00;;
27999;SDS011;15328;50.860;10.562;2022-07-18T22:48:33;1.67;;;1.13;;
27999;SDS011;15328;50.860;10.562;2022-07-18T22:53:34;1.70;;;1.08;;
27999;SDS011;15328;50.860;10.562;2022-07-18T22:58:34;1.30;;;1.00;;
27999;SDS011;15328;50.860;10.562;2022-07-18T23:03:35;2.45;;;1.10;;
27999;SDS011;15328;50.860;10.562;2022-07-18T23:08:35;2.13;;;1.40;;
27999;SDS011;15328;50.860;10.562;2022-07-18T23:13:36;1.40;;;1.10;;
27999;SDS011;15328;50.860;10.562;2022-07-18T23:18:36;1.95;;;1.20;;
27999;SDS011;15328;50.860;10.562;2022-07-18T23:23:37;1.52;;;1.00;;
27999;SDS011;15328;50.860;10.562;2022-07-18T23:28:37;2.00;;;1.20;;
27999;SDS011;15328;50.860;10.562;2022-07-18T23:33:38;1.53;;;1.00;;
27999;SDS011;15328;50.860;10.562;2022-07-18T23:38:38;3.07;;;1.13;;
27999;SDS011;15328;50.860;10.562;2022-07-18T23:43:38;1.67;;;1.00;;
27999;SDS011;15328;50.860;10.562;2022-07-18T23:48:39;1.63;;;1.00;;
27999;SDS011;15328;50.860;10.562;2022-07-18T23:53:39;3.08;;;1.10;;
27999;SDS011;15328;50.860;10.562;2022-07-18T23:58:39;2.67;;;0.80;;
